createdAt,value
2023-03-28T00:00:05.400Z,26.65
2023-03-28T00:01:05.336Z,26.58
2023-03-28T00:02:05.353Z,26.58
2023-03-28T00:03:05.428Z,26.55
2023-03-28T00:04:05.364Z,26.58
2023-03-28T00:05:05.335Z,26.70
2023-03-28T00:06:05.619Z,26.51
2023-03-28T00:07:05.335Z,26.57
2023-03-28T00:08:05.541Z,26.62
2023-03-28T00:09:05.340Z,26.54
2023-03-28T00:10:05.343Z,26.52
2023-03-28T00:11:05.332Z,26.54
2023-03-28T00:12:05.344Z,26.52
2023-03-28T00:13:05.332Z,26.55
2023-03-28T00:14:05.351Z,26.58
2023-03-28T00:15:05.336Z,26.65
2023-03-28T00:16:05.406Z,26.54
2023-03-28T00:17:05.331Z,26.54
2023-03-28T00:18:05.341Z,26.58
2023-03-28T00:19:05.329Z,26.51
2023-03-28T00:20:07.274Z,26.54
2023-03-28T00:21:05.334Z,26.50
2023-03-28T00:22:05.362Z,26.60
2023-03-28T00:23:05.330Z,26.54
2023-03-28T00:24:05.341Z,26.55
2023-03-28T00:25:05.330Z,26.50
2023-03-28T00:26:05.335Z,26.50
2023-03-28T00:27:05.327Z,26.52
2023-03-28T00:28:05.346Z,26.57
2023-03-28T00:29:05.331Z,26.54
2023-03-28T00:30:05.344Z,26.48
2023-03-28T00:31:05.418Z,26.57
2023-03-28T00:32:05.331Z,26.57
2023-03-28T00:33:05.437Z,26.58
2023-03-28T00:34:05.335Z,26.57
2023-03-28T00:35:05.323Z,26.54
2023-03-28T00:36:05.344Z,26.60
2023-03-28T00:37:05.341Z,26.62
2023-03-28T00:38:05.355Z,26.62
2023-03-28T00:39:05.323Z,26.58
2023-03-28T00:40:05.346Z,26.52
2023-03-28T00:41:05.326Z,26.54
2023-03-28T00:42:05.329Z,26.54
2023-03-28T00:43:05.318Z,26.57
2023-03-28T00:44:05.327Z,26.54
2023-03-28T00:45:05.324Z,26.60
2023-03-28T00:46:09.469Z,26.54
2023-03-28T00:47:05.386Z,26.52
2023-03-28T00:48:05.363Z,26.54
2023-03-28T00:49:05.328Z,26.65
2023-03-28T00:50:05.332Z,26.57
2023-03-28T00:51:05.317Z,26.54
2023-03-28T00:52:05.322Z,26.54
2023-03-28T00:53:05.326Z,26.58
2023-03-28T00:54:05.350Z,26.54
2023-03-28T00:55:05.314Z,26.54
2023-03-28T00:56:05.327Z,26.54
2023-03-28T00:57:05.364Z,26.54
2023-03-28T00:58:05.322Z,26.47
2023-03-28T00:59:05.320Z,26.66
2023-03-28T01:00:05.325Z,26.55
2023-03-28T01:01:05.312Z,26.54
2023-03-28T01:02:05.354Z,26.66
2023-03-28T01:03:05.335Z,26.54
2023-03-28T01:04:05.327Z,26.55
2023-03-28T01:05:05.308Z,26.57
2023-03-28T01:06:05.322Z,26.52
2023-03-28T01:07:05.307Z,26.55
2023-03-28T01:08:05.315Z,26.60
2023-03-28T01:09:05.317Z,26.63
2023-03-28T01:10:05.366Z,26.55
2023-03-28T01:11:05.299Z,26.58
2023-03-28T01:12:05.308Z,26.60
2023-03-28T01:13:05.300Z,26.57
2023-03-28T01:14:05.306Z,26.51
2023-03-28T01:15:05.304Z,26.54
2023-03-28T01:16:05.372Z,26.51
2023-03-28T01:17:05.303Z,26.57
2023-03-28T01:18:05.328Z,26.57
2023-03-28T01:19:05.295Z,26.65
2023-03-28T01:20:05.302Z,26.51
2023-03-28T01:21:05.296Z,26.52
2023-03-28T01:22:05.303Z,26.51
2023-03-28T01:23:05.295Z,26.51
2023-03-28T01:24:11.755Z,26.60
2023-03-28T01:25:05.294Z,26.54
2023-03-28T01:26:05.743Z,26.60
2023-03-28T01:27:05.293Z,26.51
2023-03-28T01:28:05.301Z,26.50
2023-03-28T01:29:05.293Z,26.57
2023-03-28T01:30:05.300Z,26.57
2023-03-28T01:31:05.343Z,26.57
2023-03-28T01:32:05.299Z,26.57
2023-03-28T01:33:05.340Z,26.55
2023-03-28T01:34:05.295Z,26.52
2023-03-28T01:35:05.302Z,26.51
2023-03-28T01:36:05.361Z,26.48
2023-03-28T01:37:05.292Z,26.60
2023-03-28T01:38:05.294Z,26.54
2023-03-28T01:39:05.285Z,26.60
2023-03-28T01:40:05.292Z,26.57
2023-03-28T01:41:05.286Z,26.57
2023-03-28T01:42:05.320Z,26.55
2023-03-28T01:43:05.289Z,26.54
2023-03-28T01:44:05.291Z,26.57
2023-03-28T01:45:05.283Z,26.54
2023-03-28T01:46:05.350Z,26.60
2023-03-28T01:47:05.287Z,26.52
2023-03-28T01:48:05.307Z,26.54
2023-03-28T01:49:05.290Z,26.55
2023-03-28T01:50:05.294Z,26.52
2023-03-28T01:51:05.282Z,26.48
2023-03-28T01:52:05.291Z,26.47
2023-03-28T01:53:05.278Z,26.52
2023-03-28T01:54:05.291Z,26.57
2023-03-28T01:55:05.313Z,26.58
2023-03-28T01:56:05.288Z,26.55
2023-03-28T01:57:05.383Z,26.54
2023-03-28T01:58:05.321Z,26.52
2023-03-28T01:59:05.280Z,26.51
2023-03-28T02:00:05.282Z,26.62
2023-03-28T02:01:05.397Z,26.62
2023-03-28T02:02:05.319Z,26.55
2023-03-28T02:03:05.395Z,26.54
2023-03-28T02:04:05.280Z,26.48
2023-03-28T02:05:05.277Z,26.52
2023-03-28T02:06:05.280Z,26.50
2023-03-28T02:07:05.277Z,26.52
2023-03-28T02:08:05.276Z,26.50
2023-03-28T02:09:05.271Z,26.57
2023-03-28T02:10:05.307Z,26.54
2023-03-28T02:11:05.275Z,26.54
2023-03-28T02:12:05.279Z,26.60
2023-03-28T02:13:05.270Z,26.52
2023-03-28T02:14:05.308Z,26.54
2023-03-28T02:15:05.284Z,26.52
2023-03-28T02:16:05.306Z,26.62
2023-03-28T02:17:05.273Z,26.57
2023-03-28T02:18:05.343Z,26.58
2023-03-28T02:19:05.270Z,26.57
2023-03-28T02:20:05.278Z,26.57
2023-03-28T02:21:05.272Z,26.60
2023-03-28T02:22:05.278Z,26.55
2023-03-28T02:23:05.269Z,26.51
2023-03-28T02:24:05.282Z,26.55
2023-03-28T02:25:05.274Z,26.57
2023-03-28T02:26:05.280Z,26.52
2023-03-28T02:27:05.275Z,26.58
2023-03-28T02:28:05.281Z,26.51
2023-03-28T02:29:05.269Z,26.57
2023-03-28T02:30:05.306Z,26.57
2023-03-28T02:31:05.275Z,26.51
2023-03-28T02:32:05.377Z,26.55
2023-03-28T02:33:05.339Z,26.62
2023-03-28T02:34:05.281Z,26.60
2023-03-28T02:35:05.268Z,26.57
2023-03-28T02:36:05.390Z,26.50
2023-03-28T02:37:05.266Z,26.60
2023-03-28T02:38:05.272Z,26.50
2023-03-28T02:39:05.266Z,26.55
2023-03-28T02:40:05.271Z,26.51
2023-03-28T02:41:05.268Z,26.57
2023-03-28T02:42:05.269Z,26.58
2023-03-28T02:43:05.267Z,26.55
2023-03-28T02:44:05.274Z,26.60
2023-03-28T02:45:05.271Z,26.54
2023-03-28T02:46:05.322Z,26.55
2023-03-28T02:47:05.261Z,26.48
2023-03-28T02:48:05.296Z,26.57
2023-03-28T02:49:05.271Z,26.57
2023-03-28T02:50:05.272Z,26.51
2023-03-28T02:51:05.261Z,26.51
2023-03-28T02:52:05.269Z,26.60
2023-03-28T02:53:05.265Z,26.54
2023-03-28T02:54:05.267Z,26.48
2023-03-28T02:55:05.262Z,26.57
2023-03-28T02:56:05.279Z,26.52
2023-03-28T02:57:05.386Z,26.57
2023-03-28T02:58:05.270Z,26.52
2023-03-28T02:59:05.264Z,26.54
2023-03-28T03:00:05.275Z,26.62
2023-03-28T03:01:05.375Z,26.51
2023-03-28T03:02:05.297Z,26.52
2023-03-28T03:03:05.314Z,26.54
2023-03-28T03:04:05.289Z,26.57
2023-03-28T03:05:05.263Z,26.52
2023-03-28T03:06:05.271Z,26.60
2023-03-28T03:07:05.263Z,26.55
2023-03-28T03:08:05.255Z,26.58
2023-03-28T03:09:05.271Z,26.55
2023-03-28T03:10:05.255Z,26.57
2023-03-28T03:11:05.262Z,26.55
2023-03-28T03:12:05.256Z,26.50
2023-03-28T03:13:05.264Z,26.58
2023-03-28T03:14:05.258Z,26.58
2023-03-28T03:15:05.302Z,26.50
2023-03-28T03:16:05.370Z,26.55
2023-03-28T03:17:05.261Z,26.55
2023-03-28T03:18:05.357Z,26.58
2023-03-28T03:19:05.260Z,26.52
2023-03-28T03:20:05.250Z,26.50
2023-03-28T03:21:05.257Z,26.48
2023-03-28T03:22:05.253Z,26.62
2023-03-28T03:23:05.276Z,26.52
2023-03-28T03:24:05.250Z,26.55
2023-03-28T03:25:05.257Z,26.48
2023-03-28T03:26:05.247Z,26.50
2023-03-28T03:27:05.291Z,26.48
2023-03-28T03:28:05.245Z,26.55
2023-03-28T03:29:05.260Z,26.52
2023-03-28T03:30:05.318Z,26.57
2023-03-28T03:31:05.283Z,26.52
2023-03-28T03:32:05.262Z,26.50
2023-03-28T03:33:05.300Z,26.55
2023-03-28T03:34:05.276Z,26.55
2023-03-28T03:35:05.252Z,26.55
2023-03-28T03:36:05.260Z,26.55
2023-03-28T03:37:05.261Z,26.50
2023-03-28T03:38:05.248Z,26.54
2023-03-28T03:39:05.250Z,26.57
2023-03-28T03:40:05.243Z,26.55
2023-03-28T03:41:05.249Z,26.51
2023-03-28T03:42:05.238Z,26.51
2023-03-28T03:43:05.247Z,26.54
2023-03-28T03:44:05.241Z,26.57
2023-03-28T03:45:05.241Z,26.48
2023-03-28T03:46:05.410Z,26.51
2023-03-28T03:47:05.243Z,26.54
2023-03-28T03:48:05.281Z,26.47
2023-03-28T03:49:05.239Z,26.52
2023-03-28T03:50:05.259Z,26.54
2023-03-28T03:51:05.246Z,26.51
2023-03-28T03:52:05.237Z,26.50
2023-03-28T03:53:05.239Z,26.51
2023-03-28T03:54:05.237Z,26.50
2023-03-28T03:55:05.234Z,26.51
2023-03-28T03:56:05.237Z,26.52
2023-03-28T03:57:05.367Z,26.52
2023-03-28T03:58:05.225Z,26.55
2023-03-28T03:59:05.232Z,26.51
2023-03-28T04:00:05.228Z,26.52
2023-03-28T04:01:05.233Z,26.54
2023-03-28T04:02:05.252Z,26.50
2023-03-28T04:03:05.253Z,26.51
2023-03-28T04:04:05.273Z,26.51
2023-03-28T04:05:05.228Z,26.52
2023-03-28T04:06:05.318Z,26.54
2023-03-28T04:07:05.229Z,26.55
2023-03-28T04:08:05.221Z,26.58
2023-03-28T04:09:05.227Z,26.51
2023-03-28T04:10:05.229Z,26.54
2023-03-28T04:11:05.226Z,26.55
2023-03-28T04:12:05.228Z,26.58
2023-03-28T04:13:05.222Z,26.55
2023-03-28T04:14:05.216Z,26.55
2023-03-28T04:15:05.236Z,26.58
2023-03-28T04:16:05.265Z,26.54
2023-03-28T04:17:05.226Z,26.52
2023-03-28T04:18:07.625Z,26.48
2023-03-28T04:19:05.221Z,26.54
2023-03-28T04:20:05.214Z,26.50
2023-03-28T04:21:05.239Z,26.50
2023-03-28T04:22:05.236Z,26.51
2023-03-28T04:23:05.218Z,26.43
2023-03-28T04:24:05.220Z,26.48
2023-03-28T04:25:05.219Z,26.44
2023-03-28T04:26:05.211Z,26.54
2023-03-28T04:27:05.217Z,26.50
2023-03-28T04:28:05.210Z,26.45
2023-03-28T04:29:05.225Z,26.58
2023-03-28T04:30:05.211Z,26.43
2023-03-28T04:31:05.238Z,26.50
2023-03-28T04:32:05.214Z,26.50
2023-03-28T04:33:05.302Z,26.39
2023-03-28T04:34:05.215Z,26.47
2023-03-28T04:35:05.220Z,26.45
2023-03-28T04:36:05.248Z,26.45
2023-03-28T04:37:05.216Z,26.50
2023-03-28T04:38:05.232Z,26.47
2023-03-28T04:39:05.214Z,26.48
2023-03-28T04:40:05.237Z,26.47
2023-03-28T04:41:05.216Z,26.43
2023-03-28T04:42:05.308Z,26.43
2023-03-28T04:43:05.212Z,26.40
2023-03-28T04:44:05.208Z,26.43
2023-03-28T04:45:05.215Z,26.35
2023-03-28T04:46:05.292Z,26.44
2023-03-28T04:47:05.214Z,26.43
2023-03-28T04:48:05.280Z,26.36
2023-03-28T04:49:05.215Z,26.39
2023-03-28T04:50:05.205Z,26.36
2023-03-28T04:51:05.210Z,26.39
2023-03-28T04:52:05.202Z,26.35
2023-03-28T04:53:05.209Z,26.35
2023-03-28T04:54:05.225Z,26.35
2023-03-28T04:55:05.211Z,26.37
2023-03-28T04:56:05.202Z,26.35
2023-03-28T04:57:05.251Z,26.30
2023-03-28T04:58:05.209Z,26.29
2023-03-28T04:59:05.206Z,26.29
2023-03-28T05:00:05.208Z,26.23
2023-03-28T05:01:05.236Z,26.28
2023-03-28T05:02:05.232Z,26.28
2023-03-28T05:03:05.416Z,26.26
2023-03-28T05:04:05.194Z,26.33
2023-03-28T05:05:05.216Z,26.18
2023-03-28T05:06:05.197Z,26.35
2023-03-28T05:07:05.198Z,26.32
2023-03-28T05:08:05.295Z,26.18
2023-03-28T05:09:05.198Z,26.28
2023-03-28T05:10:05.220Z,26.30
2023-03-28T05:11:05.194Z,26.37
2023-03-28T05:12:05.193Z,26.37
2023-03-28T05:13:05.199Z,26.39
2023-03-28T05:14:05.185Z,26.44
2023-03-28T05:15:05.189Z,26.39
2023-03-28T05:16:05.225Z,26.37
2023-03-28T05:17:05.190Z,26.44
2023-03-28T05:18:05.226Z,26.44
2023-03-28T05:19:05.193Z,26.43
2023-03-28T05:20:05.182Z,26.43
2023-03-28T05:21:05.208Z,26.45
2023-03-28T05:22:05.188Z,26.45
2023-03-28T05:23:05.181Z,26.45
2023-03-28T05:24:05.175Z,26.40
2023-03-28T05:25:05.179Z,26.48
2023-03-28T05:26:05.199Z,26.47
2023-03-28T05:27:05.178Z,26.50
2023-03-28T05:28:05.180Z,26.52
2023-03-28T05:29:05.176Z,26.50
2023-03-28T05:30:05.174Z,26.48
2023-03-28T05:31:05.174Z,26.55
2023-03-28T05:32:05.266Z,26.50
2023-03-28T05:33:05.243Z,26.57
2023-03-28T05:34:05.165Z,26.58
2023-03-28T05:35:05.172Z,26.52
2023-03-28T05:36:05.220Z,26.54
2023-03-28T05:37:05.171Z,26.57
2023-03-28T05:38:05.177Z,26.57
2023-03-28T05:39:05.215Z,26.58
2023-03-28T05:40:05.170Z,26.60
2023-03-28T05:41:05.188Z,26.67
2023-03-28T05:42:05.195Z,26.63
2023-03-28T05:43:05.172Z,26.63
2023-03-28T05:44:05.164Z,26.63
2023-03-28T05:45:05.173Z,26.65
2023-03-28T05:46:05.176Z,26.72
2023-03-28T05:47:05.185Z,26.66
2023-03-28T05:48:05.212Z,26.73
2023-03-28T05:49:05.173Z,26.73
2023-03-28T05:50:05.231Z,26.73
2023-03-28T05:51:05.170Z,26.75
2023-03-28T05:52:05.169Z,26.70
2023-03-28T05:53:05.177Z,26.73
2023-03-28T05:54:05.173Z,26.73
2023-03-28T05:55:05.166Z,26.70
2023-03-28T05:56:05.164Z,26.72
2023-03-28T05:57:05.203Z,26.73
2023-03-28T05:58:05.180Z,26.81
2023-03-28T05:59:05.168Z,26.77
2023-03-28T06:00:05.155Z,26.88
2023-03-28T06:01:05.163Z,26.87
2023-03-28T06:02:05.167Z,26.81
2023-03-28T06:03:05.263Z,26.85
2023-03-28T06:04:05.205Z,26.89
2023-03-28T06:05:05.196Z,26.88
2023-03-28T06:06:05.159Z,26.94
2023-03-28T06:07:05.174Z,26.91
2023-03-28T06:08:05.250Z,26.95
2023-03-28T06:09:05.187Z,26.89
2023-03-28T06:10:05.152Z,26.92
2023-03-28T06:11:05.186Z,26.91
2023-03-28T06:12:05.173Z,26.92
2023-03-28T06:13:05.164Z,27.03
2023-03-28T06:14:05.181Z,26.99
2023-03-28T06:15:05.158Z,26.95
2023-03-28T06:16:05.148Z,27.04
2023-03-28T06:17:05.201Z,26.92
2023-03-28T06:18:05.169Z,26.99
2023-03-28T06:19:17.241Z,26.99
2023-03-28T06:20:05.176Z,26.94
2023-03-28T06:21:05.159Z,26.94
2023-03-28T06:22:05.152Z,26.95
2023-03-28T06:23:05.156Z,26.97
2023-03-28T06:24:05.149Z,26.94
2023-03-28T06:25:05.162Z,26.89
2023-03-28T06:26:05.158Z,27.03
2023-03-28T06:27:05.155Z,26.92
2023-03-28T06:28:05.148Z,26.94
2023-03-28T06:29:05.156Z,27.00
2023-03-28T06:30:05.171Z,26.95
2023-03-28T06:31:05.220Z,27.03
2023-03-28T06:32:05.151Z,27.00
2023-03-28T06:33:05.183Z,27.00
2023-03-28T06:34:05.149Z,27.07
2023-03-28T06:35:05.171Z,27.10
2023-03-28T06:36:05.177Z,27.13
2023-03-28T06:37:05.162Z,27.09
2023-03-28T06:38:05.188Z,27.09
2023-03-28T06:39:05.163Z,27.13
2023-03-28T06:40:05.244Z,27.17
2023-03-28T06:41:05.156Z,27.17
2023-03-28T06:42:05.149Z,27.21
2023-03-28T06:43:05.155Z,27.21
2023-03-28T06:44:05.147Z,27.19
2023-03-28T06:45:05.163Z,27.31
2023-03-28T06:46:05.179Z,27.19
2023-03-28T06:47:05.156Z,27.24
2023-03-28T06:48:05.238Z,27.28
2023-03-28T06:49:05.158Z,27.25
2023-03-28T06:50:05.152Z,27.27
2023-03-28T06:51:05.158Z,27.25
2023-03-28T06:52:05.149Z,27.27
2023-03-28T06:53:05.153Z,27.18
2023-03-28T06:54:05.152Z,27.25
2023-03-28T06:55:05.153Z,27.28
2023-03-28T06:56:05.148Z,27.31
2023-03-28T06:57:05.190Z,27.28
2023-03-28T06:58:05.146Z,27.31
2023-03-28T06:59:05.152Z,27.34
2023-03-28T07:00:05.151Z,27.36
2023-03-28T07:01:05.154Z,27.40
2023-03-28T07:02:05.230Z,27.37
2023-03-28T07:03:05.241Z,27.31
2023-03-28T07:04:05.301Z,27.36
2023-03-28T07:05:05.158Z,27.29
2023-03-28T07:06:05.151Z,27.37
2023-03-28T07:07:05.171Z,27.31
2023-03-28T07:08:05.149Z,27.31
2023-03-28T07:09:06.643Z,27.24
2023-03-28T07:10:05.163Z,27.34
2023-03-28T07:11:05.211Z,27.31
2023-03-28T07:12:05.165Z,27.32
2023-03-28T07:13:05.157Z,27.34
2023-03-28T07:14:05.152Z,27.39
2023-03-28T07:15:05.158Z,27.32
2023-03-28T07:16:05.203Z,27.28
2023-03-28T07:17:05.179Z,27.24
2023-03-28T07:18:05.237Z,27.27
2023-03-28T07:19:05.150Z,27.25
2023-03-28T07:20:05.199Z,27.19
2023-03-28T07:21:05.317Z,27.25
2023-03-28T07:22:05.162Z,27.22
2023-03-28T07:23:05.152Z,27.24
2023-03-28T07:24:05.159Z,27.10
2023-03-28T07:25:05.165Z,27.14
2023-03-28T07:26:05.157Z,27.12
2023-03-28T07:27:14.769Z,27.12
2023-03-28T07:28:05.163Z,27.13
2023-03-28T07:29:05.151Z,27.12
2023-03-28T07:30:05.161Z,27.14
2023-03-28T07:31:05.161Z,27.13
2023-03-28T07:32:05.173Z,27.17
2023-03-28T07:33:17.486Z,27.10
2023-03-28T07:34:05.214Z,27.10
2023-03-28T07:35:05.149Z,27.06
2023-03-28T07:36:05.168Z,27.13
2023-03-28T07:37:05.158Z,27.06
2023-03-28T07:38:05.157Z,27.10
2023-03-28T07:39:05.162Z,27.09
2023-03-28T07:40:05.163Z,27.10
2023-03-28T07:41:05.151Z,27.13
2023-03-28T07:42:05.162Z,27.13
2023-03-28T07:43:05.151Z,27.09
2023-03-28T07:44:05.157Z,27.10
2023-03-28T07:45:05.153Z,27.02
2023-03-28T07:46:05.274Z,27.02
2023-03-28T07:47:05.146Z,27.03
2023-03-28T07:48:05.201Z,27.00
2023-03-28T07:49:05.145Z,27.03
2023-03-28T07:50:05.178Z,26.95
2023-03-28T07:51:05.145Z,26.99
2023-03-28T07:52:05.155Z,27.02
2023-03-28T07:53:05.148Z,27.02
2023-03-28T07:54:05.153Z,27.00
2023-03-28T07:55:05.146Z,27.03
2023-03-28T07:56:05.168Z,26.95
2023-03-28T07:57:05.182Z,26.92
2023-03-28T07:58:05.154Z,26.97
2023-03-28T07:59:05.146Z,26.94
2023-03-28T08:00:05.246Z,26.95
2023-03-28T08:01:05.153Z,26.95
2023-03-28T08:02:05.152Z,26.94
2023-03-28T08:03:05.221Z,26.95
2023-03-28T08:04:05.269Z,26.99
2023-03-28T08:05:05.180Z,26.92
2023-03-28T08:06:09.247Z,27.00
2023-03-28T08:07:05.144Z,26.95
2023-03-28T08:08:05.155Z,26.94
2023-03-28T08:09:05.144Z,26.97
2023-03-28T08:10:05.152Z,26.92
2023-03-28T08:11:05.150Z,26.89
2023-03-28T08:12:05.149Z,26.95
2023-03-28T08:13:05.140Z,26.97
2023-03-28T08:14:05.154Z,26.97
2023-03-28T08:15:05.140Z,26.94
2023-03-28T08:16:05.216Z,26.94
2023-03-28T08:17:05.153Z,26.89
2023-03-28T08:18:05.170Z,26.94
2023-03-28T08:20:05.148Z,26.89
2023-03-28T08:21:05.151Z,27.00
2023-03-28T08:22:05.172Z,26.91
2023-03-28T08:23:05.141Z,26.95
2023-03-28T08:24:05.148Z,26.92
2023-03-28T08:25:05.140Z,26.97
2023-03-28T08:26:05.242Z,26.99
2023-03-28T08:27:05.152Z,26.87
2023-03-28T08:28:05.148Z,26.91
2023-03-28T08:29:05.149Z,26.89
2023-03-28T08:30:05.149Z,26.91
2023-03-28T08:31:05.163Z,26.97
2023-03-28T08:32:05.207Z,26.95
2023-03-28T08:33:05.178Z,26.95
2023-03-28T08:34:05.148Z,26.92
2023-03-28T08:35:05.148Z,26.92
2023-03-28T08:36:05.237Z,26.89
2023-03-28T08:37:05.141Z,26.89
2023-03-28T08:38:05.175Z,26.89
2023-03-28T08:39:05.141Z,26.95
2023-03-28T08:40:05.145Z,27.00
2023-03-28T08:41:05.507Z,26.95
2023-03-28T08:42:05.145Z,26.97
2023-03-28T08:43:05.138Z,26.94
2023-03-28T08:44:05.152Z,26.99
2023-03-28T08:45:05.146Z,27.00
2023-03-28T08:46:05.199Z,27.02
2023-03-28T08:47:05.136Z,26.97
2023-03-28T08:48:05.242Z,27.07
2023-03-28T08:49:05.142Z,27.03
2023-03-28T08:50:05.148Z,26.99
2023-03-28T08:51:05.138Z,26.97
2023-03-28T08:52:05.146Z,27.03
2023-03-28T08:53:05.143Z,27.02
2023-03-28T08:54:05.196Z,26.99
2023-03-28T08:55:05.139Z,27.02
2023-03-28T08:56:05.164Z,27.00
2023-03-28T08:57:05.199Z,27.04
2023-03-28T08:58:05.140Z,26.91
2023-03-28T08:59:05.134Z,26.97
2023-03-28T09:00:05.141Z,27.00
2023-03-28T09:01:05.140Z,27.00
2023-03-28T09:02:08.068Z,26.94
2023-03-28T09:03:05.254Z,27.00
2023-03-28T09:04:05.301Z,26.99
2023-03-28T09:05:21.945Z,27.09
2023-03-28T09:06:05.147Z,27.06
2023-03-28T09:07:05.136Z,27.00
2023-03-28T09:08:05.145Z,27.12
2023-03-28T09:09:05.138Z,27.06
2023-03-28T09:10:05.186Z,26.97
2023-03-28T09:11:05.138Z,27.00
2023-03-28T09:12:05.143Z,27.04
2023-03-28T09:13:05.133Z,27.02
2023-03-28T09:14:05.141Z,26.95
2023-03-28T09:15:05.180Z,26.95
2023-03-28T09:16:05.174Z,27.03
2023-03-28T09:17:05.133Z,27.02
2023-03-28T09:18:05.188Z,27.03
2023-03-28T09:19:05.133Z,27.12
2023-03-28T09:20:05.142Z,27.13
2023-03-28T09:21:05.136Z,27.13
2023-03-28T09:22:15.171Z,27.06
2023-03-28T09:23:05.130Z,27.04
2023-03-28T09:24:05.142Z,27.18
2023-03-28T09:25:05.137Z,27.17
2023-03-28T09:26:05.166Z,27.07
2023-03-28T09:27:05.128Z,27.17
2023-03-28T09:28:05.135Z,27.13
2023-03-28T09:29:05.129Z,27.13
2023-03-28T09:30:05.137Z,27.13
2023-03-28T09:31:05.138Z,27.13
2023-03-28T09:32:05.182Z,27.14
2023-03-28T09:33:05.138Z,27.18
2023-03-28T09:34:05.137Z,27.17
2023-03-28T09:35:05.127Z,27.14
2023-03-28T09:36:05.202Z,27.13
2023-03-28T09:37:05.128Z,27.10
2023-03-28T09:38:05.146Z,27.12
2023-03-28T09:39:05.125Z,27.10
2023-03-28T09:40:05.131Z,27.24
2023-03-28T09:41:05.145Z,27.19
2023-03-28T09:42:05.170Z,27.25
2023-03-28T09:43:05.136Z,27.25
2023-03-28T09:44:05.136Z,27.25
2023-03-28T09:45:05.127Z,27.19
2023-03-28T09:46:05.182Z,27.21
2023-03-28T09:47:05.126Z,27.28
2023-03-28T09:48:05.225Z,27.14
2023-03-28T09:49:05.155Z,27.21
2023-03-28T09:50:12.239Z,27.21
2023-03-28T09:51:05.127Z,27.27
2023-03-28T09:52:05.133Z,27.21
2023-03-28T09:53:05.126Z,27.24
2023-03-28T09:54:05.138Z,27.31
2023-03-28T09:55:05.131Z,27.32
2023-03-28T09:56:05.280Z,27.28
2023-03-28T09:57:05.193Z,27.37
2023-03-28T09:58:05.157Z,27.28
2023-03-28T09:59:05.131Z,27.39
2023-03-28T10:00:05.133Z,27.39
2023-03-28T10:01:05.178Z,27.34
2023-03-28T10:02:05.138Z,27.32
2023-03-28T10:03:05.203Z,27.39
2023-03-28T10:04:05.206Z,27.31
2023-03-28T10:05:06.338Z,27.28
2023-03-28T10:06:05.137Z,27.36
2023-03-28T10:07:05.131Z,27.36
2023-03-28T10:08:05.135Z,27.41
2023-03-28T10:09:05.124Z,27.32
2023-03-28T10:10:05.139Z,27.32
2023-03-28T10:11:05.121Z,27.43
2023-03-28T10:12:05.132Z,27.43
2023-03-28T10:13:05.122Z,27.40
2023-03-28T10:14:05.158Z,27.41
2023-03-28T10:15:05.129Z,27.40
2023-03-28T10:16:05.206Z,27.43
2023-03-28T10:17:05.127Z,27.41
2023-03-28T10:18:05.161Z,27.44
2023-03-28T10:19:05.126Z,27.44
2023-03-28T10:20:05.138Z,27.47
2023-03-28T10:21:05.129Z,27.41
2023-03-28T10:22:05.136Z,27.40
2023-03-28T10:23:05.123Z,27.40
2023-03-28T10:24:05.137Z,27.41
2023-03-28T10:25:05.129Z,27.40
2023-03-28T10:26:05.134Z,27.34
2023-03-28T10:27:05.126Z,27.49
2023-03-28T10:28:05.134Z,27.40
2023-03-28T10:29:05.129Z,27.50
2023-03-28T10:30:05.189Z,27.43
2023-03-28T10:31:05.153Z,27.44
2023-03-28T10:32:05.132Z,27.46
2023-03-28T10:33:05.146Z,27.41
2023-03-28T10:34:05.136Z,27.40
2023-03-28T10:35:05.138Z,27.41
2023-03-28T10:36:05.162Z,27.46
2023-03-28T10:37:05.131Z,27.49
2023-03-28T10:38:05.144Z,27.47
2023-03-28T10:39:05.138Z,27.50
2023-03-28T10:40:05.197Z,27.47
2023-03-28T10:41:05.317Z,27.47
2023-03-28T10:42:05.143Z,27.49
2023-03-28T10:43:05.138Z,27.44
2023-03-28T10:44:05.137Z,27.39
2023-03-28T10:45:05.129Z,27.40
2023-03-28T10:46:05.192Z,27.40
2023-03-28T10:47:05.133Z,27.51
2023-03-28T10:48:05.158Z,27.41
2023-03-28T10:49:05.135Z,27.41
2023-03-28T10:50:05.137Z,27.39
2023-03-28T10:51:05.140Z,27.49
2023-03-28T10:52:05.136Z,27.47
2023-03-28T10:53:05.129Z,27.39
2023-03-28T10:54:05.144Z,27.40
2023-03-28T10:55:05.141Z,27.41
2023-03-28T10:56:05.147Z,27.41
2023-03-28T10:57:05.168Z,27.39
2023-03-28T10:58:05.147Z,27.43
2023-03-28T10:59:05.129Z,27.39
2023-03-28T11:00:05.136Z,27.37
2023-03-28T11:01:05.128Z,27.41
2023-03-28T11:02:05.231Z,27.29
2023-03-28T11:03:05.240Z,27.41
2023-03-28T11:04:05.270Z,27.36
2023-03-28T11:05:05.128Z,27.36
2023-03-28T11:06:10.008Z,27.31
2023-03-28T11:07:05.128Z,27.28
2023-03-28T11:08:05.136Z,27.27
2023-03-28T11:09:05.136Z,27.25
2023-03-28T11:10:05.144Z,27.25
2023-03-28T11:11:05.130Z,27.24
2023-03-28T11:12:05.136Z,27.27
2023-03-28T11:13:05.312Z,27.31
2023-03-28T11:14:05.153Z,27.18
2023-03-28T11:15:05.126Z,27.24
2023-03-28T11:16:05.174Z,27.21
2023-03-28T11:17:05.136Z,27.21
2023-03-28T11:18:05.277Z,27.21
2023-03-28T11:19:05.126Z,27.25
2023-03-28T11:20:05.137Z,27.17
2023-03-28T11:21:05.131Z,27.21
2023-03-28T11:22:05.136Z,27.24
2023-03-28T11:23:06.635Z,27.14
2023-03-28T11:24:05.135Z,27.22
2023-03-28T11:25:05.133Z,27.14
2023-03-28T11:26:05.137Z,27.13
2023-03-28T11:27:14.860Z,27.14
2023-03-28T11:28:05.142Z,27.25
2023-03-28T11:29:05.128Z,27.22
2023-03-28T11:30:05.144Z,27.21
2023-03-28T11:31:05.230Z,27.13
2023-03-28T11:32:05.140Z,27.09
2023-03-28T11:33:05.207Z,27.12
2023-03-28T11:34:05.159Z,27.19
2023-03-28T11:35:05.134Z,27.13
2023-03-28T11:36:05.164Z,27.24
2023-03-28T11:37:05.133Z,27.19
2023-03-28T11:38:05.175Z,27.14
2023-03-28T11:39:05.132Z,27.21
2023-03-28T11:40:06.737Z,27.14
2023-03-28T11:41:05.135Z,27.14
2023-03-28T11:42:05.127Z,27.18
2023-03-28T11:43:05.196Z,27.24
2023-03-28T11:44:05.126Z,27.17
2023-03-28T11:45:05.134Z,27.13
2023-03-28T11:46:05.172Z,27.13
2023-03-28T11:47:05.131Z,27.12
2023-03-28T11:48:05.147Z,27.14
2023-03-28T11:49:05.133Z,27.13
2023-03-28T11:50:05.150Z,27.09
2023-03-28T11:51:05.134Z,27.18
2023-03-28T11:52:05.135Z,27.22
2023-03-28T11:53:05.167Z,27.19
2023-03-28T11:54:05.127Z,27.17
2023-03-28T11:55:05.132Z,27.21
2023-03-28T11:56:05.124Z,27.22
2023-03-28T11:57:05.155Z,27.18
2023-03-28T11:58:05.134Z,27.17
2023-03-28T11:59:05.132Z,27.21
2023-03-28T12:00:05.127Z,27.21
2023-03-28T12:01:05.211Z,27.18
2023-03-28T12:02:05.138Z,27.24
2023-03-28T12:03:05.272Z,27.18
2023-03-28T12:04:05.235Z,27.29
2023-03-28T12:05:05.134Z,27.28
2023-03-28T12:06:05.793Z,27.25
2023-03-28T12:07:05.127Z,27.28
2023-03-28T12:08:05.153Z,27.21
2023-03-28T12:09:05.128Z,27.22
2023-03-28T12:10:05.123Z,27.21
2023-03-28T12:11:05.130Z,27.22
2023-03-28T12:12:05.123Z,27.32
2023-03-28T12:13:05.128Z,27.32
2023-03-28T12:14:11.669Z,27.28
2023-03-28T12:15:05.141Z,27.25
2023-03-28T12:16:05.126Z,27.22
2023-03-28T12:17:05.151Z,27.24
2023-03-28T12:18:05.131Z,27.28
2023-03-28T12:19:05.134Z,27.25
2023-03-28T12:20:05.137Z,27.24
2023-03-28T12:21:05.126Z,27.24
2023-03-28T12:22:05.143Z,27.21
2023-03-28T12:23:05.125Z,27.29
2023-03-28T12:24:05.117Z,27.27
2023-03-28T12:25:05.129Z,27.25
2023-03-28T12:26:05.117Z,27.27
2023-03-28T12:27:05.131Z,27.27
2023-03-28T12:28:05.119Z,27.21
2023-03-28T12:29:05.125Z,27.25
2023-03-28T12:30:05.130Z,27.27
2023-03-28T12:31:05.191Z,27.22
2023-03-28T12:32:05.120Z,27.27
2023-03-28T12:33:05.197Z,27.24
2023-03-28T12:34:05.117Z,27.34
2023-03-28T12:35:05.153Z,27.19
2023-03-28T12:36:05.169Z,27.27
2023-03-28T12:37:05.126Z,27.31
2023-03-28T12:38:05.141Z,27.34
2023-03-28T12:39:05.124Z,27.31
2023-03-28T12:40:05.124Z,27.36
2023-03-28T12:41:05.125Z,27.29
2023-03-28T12:42:05.125Z,27.34
2023-03-28T12:43:05.125Z,27.32
2023-03-28T12:44:05.117Z,27.34
2023-03-28T12:45:05.126Z,27.34
2023-03-28T12:46:05.159Z,27.32
2023-03-28T12:47:05.125Z,27.31
2023-03-28T12:48:05.142Z,27.34
2023-03-28T12:49:05.124Z,27.34
2023-03-28T12:50:05.126Z,27.36
2023-03-28T12:51:05.128Z,27.32
2023-03-28T12:52:05.117Z,27.34
2023-03-28T12:53:05.135Z,27.32